createdAt,value
2019-05-02T00:01:28.083Z,90.03
2019-05-02T00:03:58.651Z,90.44
2019-05-02T00:06:28.440Z,90.83
2019-05-02T00:08:57.907Z,91.11
2019-05-02T00:11:29.088Z,91.46
2019-05-02T00:13:58.835Z,92.20
2019-05-02T00:16:29.769Z,92.20
2019-05-02T00:18:59.204Z,92.12
2019-05-02T00:21:32.928Z,91.84
2019-05-02T00:24:03.050Z,91.93
2019-05-02T00:26:31.233Z,92.56
2019-05-02T00:29:00.637Z,92.02
2019-05-02T00:31:30.063Z,92.62
2019-05-02T00:33:59.522Z,92.87
2019-05-02T00:36:28.898Z,92.35
2019-05-02T00:38:58.356Z,92.91
2019-05-02T00:41:27.681Z,93.56
2019-05-02T00:43:57.132Z,93.43
2019-05-02T00:46:30.271Z,93.26
2019-05-02T00:49:01.794Z,93.38
2019-05-02T00:51:30.645Z,93.15
2019-05-02T00:54:00.111Z,92.76
2019-05-02T00:56:29.584Z,93.12
2019-05-02T00:59:02.294Z,93.24
2019-05-02T01:02:05.329Z,92.96
2019-05-02T01:04:37.299Z,93.25
2019-05-02T01:07:07.508Z,93.46
2019-05-02T01:09:36.856Z,94.27
2019-05-02T01:12:08.466Z,93.33
2019-05-02T01:14:37.498Z,93.76
2019-05-02T01:17:06.936Z,93.16
2019-05-02T01:19:36.188Z,93.24
2019-05-02T01:22:10.642Z,92.71
2019-05-02T01:24:41.494Z,92.65
2019-05-02T01:27:17.562Z,93.32
2019-05-02T01:30:08.558Z,92.90
2019-05-02T01:32:47.582Z,93.11
2019-05-02T01:35:38.696Z,92.79
2019-05-02T01:38:15.916Z,92.19
2019-05-02T01:40:48.173Z,92.49
2019-05-02T01:43:36.316Z,92.56
2019-05-02T01:46:05.897Z,93.94
2019-05-02T01:48:35.349Z,94.13
2019-05-02T01:51:10.466Z,94.57
2019-05-02T01:53:36.120Z,93.58
2019-05-02T01:56:05.709Z,92.65
2019-05-02T01:58:35.222Z,92.41
2019-05-02T02:01:05.603Z,92.99
2019-05-02T02:03:35.292Z,92.83
2019-05-02T02:06:08.134Z,93.11
2019-05-02T02:08:35.959Z,93.32
2019-05-02T02:11:05.326Z,93.50
2019-05-02T02:13:36.515Z,93.41
2019-05-02T02:16:06.145Z,93.76
2019-05-02T02:18:39.435Z,94.24
2019-05-02T02:21:43.163Z,93.93
2019-05-02T02:24:34.944Z,94.33
2019-05-02T02:27:04.450Z,93.70
2019-05-02T02:29:33.873Z,93.72
2019-05-02T02:32:03.431Z,93.96
2019-05-02T02:34:32.726Z,93.99
2019-05-02T02:37:05.296Z,94.27
2019-05-02T02:39:33.260Z,94.12
2019-05-02T02:42:02.702Z,94.43
2019-05-02T02:44:59.993Z,94.18
2019-05-02T02:47:29.623Z,93.82
2019-05-02T02:50:02.286Z,93.61
2019-05-02T02:52:30.265Z,93.68
2019-05-02T02:54:59.711Z,94.06
2019-05-02T02:57:29.268Z,93.35
2019-05-02T03:00:06.715Z,93.35
2019-05-02T03:02:29.886Z,93.52
2019-05-02T03:04:59.360Z,93.73
2019-05-02T03:07:29.084Z,93.80
2019-05-02T03:09:59.725Z,94.05
2019-05-02T03:13:00.870Z,93.87
2019-05-02T03:15:32.554Z,94.63
2019-05-02T03:18:02.132Z,93.57
2019-05-02T03:20:39.880Z,93.27
2019-05-02T03:23:03.416Z,92.95
2019-05-02T03:25:49.824Z,92.41
2019-05-02T03:28:04.142Z,92.61
2019-05-02T03:30:37.406Z,93.23
2019-05-02T03:33:10.929Z,94.39
2019-05-02T03:35:43.079Z,94.93
2019-05-02T03:38:07.213Z,96.96
2019-05-02T03:40:38.924Z,96.05
2019-05-02T03:43:08.165Z,94.41
2019-05-02T03:45:40.063Z,93.77
2019-05-02T03:48:08.521Z,93.86
2019-05-02T03:50:38.448Z,92.64
2019-05-02T03:53:07.751Z,94.65
2019-05-02T03:55:37.212Z,94.94
2019-05-02T03:58:13.301Z,94.87
2019-05-02T04:00:37.746Z,94.49
2019-05-02T04:03:07.317Z,94.80
2019-05-02T04:05:40.521Z,94.97
2019-05-02T04:08:19.962Z,96.04
2019-05-02T04:11:23.288Z,96.46
2019-05-02T04:13:54.317Z,97.37
2019-05-02T04:16:25.945Z,97.91
2019-05-02T04:18:58.403Z,97.49
2019-05-02T04:21:27.984Z,97.65
2019-05-02T04:24:06.745Z,96.82
2019-05-02T04:26:29.274Z,96.42
2019-05-02T04:28:58.826Z,96.64
2019-05-02T04:31:31.389Z,97.03
2019-05-02T04:33:59.173Z,96.76
2019-05-02T04:36:28.511Z,96.04
2019-05-02T04:38:59.529Z,95.91
2019-05-02T04:41:31.723Z,96.20
2019-05-02T04:44:01.508Z,95.91
2019-05-02T04:46:31.485Z,97.13
2019-05-02T04:49:01.013Z,97.56
2019-05-02T04:51:31.911Z,96.85
2019-05-02T04:54:01.887Z,97.13
2019-05-02T04:56:31.794Z,96.87
2019-05-02T04:59:02.266Z,97.76
2019-05-02T05:01:41.933Z,97.89
2019-05-02T05:04:03.501Z,97.51
2019-05-02T05:06:32.850Z,96.30
2019-05-02T05:09:03.961Z,95.51
2019-05-02T05:11:33.269Z,95.53
2019-05-02T05:14:02.556Z,95.00
2019-05-02T05:16:31.907Z,93.43
2019-05-02T05:19:01.173Z,92.68
2019-05-02T05:21:30.557Z,91.97
2019-05-02T05:24:18.794Z,91.33
2019-05-02T05:26:51.280Z,90.02
2019-05-02T05:29:23.315Z,89.08
2019-05-02T05:31:55.069Z,88.58
2019-05-02T05:34:27.451Z,89.80
2019-05-02T05:36:53.854Z,90.36
2019-05-02T05:39:23.138Z,90.92
2019-05-02T05:41:52.555Z,91.70
2019-05-02T05:44:23.291Z,91.32
2019-05-02T05:46:53.053Z,92.71
2019-05-02T05:49:22.429Z,93.35
2019-05-02T05:51:54.380Z,93.21
2019-05-02T05:54:22.746Z,92.00
2019-05-02T05:56:52.446Z,92.39
2019-05-02T05:59:27.293Z,92.05
2019-05-02T06:01:53.328Z,91.84
2019-05-02T06:04:24.040Z,91.12
2019-05-02T06:06:58.796Z,91.09
2019-05-02T06:09:26.377Z,90.32
2019-05-02T06:11:56.680Z,90.26
2019-05-02T06:14:26.489Z,90.07
2019-05-02T06:16:55.849Z,89.47
2019-05-02T06:19:25.355Z,88.48
2019-05-02T06:21:54.748Z,87.21
2019-05-02T06:24:24.134Z,86.08
2019-05-02T06:26:53.623Z,85.27
2019-05-02T06:29:23.170Z,82.95
2019-05-02T06:31:52.574Z,83.10
2019-05-02T06:34:22.104Z,82.18
2019-05-02T06:36:51.565Z,80.98
2019-05-02T06:39:21.076Z,80.25
2019-05-02T06:41:51.983Z,79.18
2019-05-02T06:44:24.181Z,79.32
2019-05-02T06:46:52.702Z,78.82
2019-05-02T06:49:24.179Z,80.16
2019-05-02T06:51:56.192Z,82.49
2019-05-02T06:54:24.431Z,83.02
2019-05-02T06:56:53.874Z,81.57
2019-05-02T06:59:23.340Z,80.62
2019-05-02T07:01:57.362Z,80.60
2019-05-02T07:04:25.063Z,76.96
2019-05-02T07:06:59.453Z,73.63
2019-05-02T07:09:39.481Z,71.19
2019-05-02T07:12:01.245Z,71.63
2019-05-02T07:14:28.314Z,74.70
2019-05-02T07:17:11.163Z,74.55
2019-05-02T07:19:44.089Z,74.95
2019-05-02T07:22:13.403Z,75.30
2019-05-02T07:24:42.770Z,76.40
2019-05-02T07:27:12.483Z,78.84
2019-05-02T07:29:41.773Z,77.96
2019-05-02T07:32:11.453Z,75.83
2019-05-02T07:34:44.328Z,75.36
2019-05-02T07:37:12.679Z,75.54
2019-05-02T07:39:43.529Z,75.04
2019-05-02T07:42:12.899Z,75.77
2019-05-02T07:44:42.343Z,73.29
2019-05-02T07:47:11.687Z,72.61
2019-05-02T07:49:41.091Z,72.46
2019-05-02T07:52:10.592Z,71.25
2019-05-02T07:54:39.982Z,69.47
2019-05-02T07:57:09.397Z,66.98
2019-05-02T07:59:38.760Z,64.65
2019-05-02T08:02:08.372Z,60.24
2019-05-02T08:04:37.701Z,61.13
2019-05-02T08:07:07.451Z,61.48
2019-05-02T08:09:39.256Z,57.03
2019-05-02T08:12:08.305Z,52.93
2019-05-02T08:14:37.703Z,47.86
2019-05-02T08:17:16.320Z,45.37
2019-05-02T08:19:41.785Z,40.04
2019-05-02T08:22:13.825Z,41.58
2019-05-02T08:24:40.511Z,42.78
2019-05-02T08:27:34.760Z,40.64
2019-05-02T08:30:04.238Z,44.10
2019-05-02T08:32:33.795Z,42.97
2019-05-02T08:35:03.059Z,39.32
2019-05-02T08:37:35.307Z,38.17
2019-05-02T08:40:05.391Z,38.00
2019-05-02T08:42:34.824Z,33.76
2019-05-02T08:45:04.666Z,34.10
2019-05-02T08:47:34.114Z,33.08
2019-05-02T08:50:03.521Z,34.26
2019-05-02T08:52:36.880Z,35.27
2019-05-02T08:55:09.004Z,35.48
2019-05-02T08:57:36.310Z,35.42
2019-05-02T09:00:07.071Z,32.88
2019-05-02T09:02:41.408Z,28.50
2019-05-02T09:05:08.203Z,32.77
2019-05-02T09:07:40.050Z,32.14
2019-05-02T09:10:09.077Z,28.31
2019-05-02T09:12:42.236Z,30.83
2019-05-02T09:15:11.838Z,40.04
2019-05-02T09:17:46.115Z,36.96
2019-05-02T09:20:17.848Z,32.19
2019-05-02T09:22:46.499Z,33.48
2019-05-02T09:25:15.271Z,32.01
2019-05-02T09:27:44.713Z,34.13
2019-05-02T09:30:17.138Z,31.39
2019-05-02T09:32:45.506Z,31.20
2019-05-02T09:35:14.909Z,28.91
2019-05-02T09:37:44.229Z,31.46
2019-05-02T09:40:16.739Z,33.79
2019-05-02T09:42:47.496Z,34.32
2019-05-02T09:45:27.856Z,34.56
2019-05-02T09:48:04.006Z,35.61
2019-05-02T09:50:31.197Z,34.11
2019-05-02T09:52:56.786Z,34.11
2019-05-02T09:55:26.255Z,32.99
2019-05-02T09:58:19.483Z,31.45
2019-05-02T10:01:05.681Z,31.94
2019-05-02T10:03:35.135Z,30.23
2019-05-02T10:06:08.302Z,31.32
2019-05-02T10:08:38.345Z,33.41
2019-05-02T10:11:07.032Z,35.62
2019-05-02T10:13:36.376Z,35.99
2019-05-02T10:16:05.771Z,36.92
2019-05-02T10:18:35.287Z,36.60
2019-05-02T10:21:07.829Z,36.60
2019-05-02T10:23:36.325Z,37.29
2019-05-02T10:26:05.848Z,32.43
2019-05-02T10:28:35.182Z,32.96
2019-05-02T10:31:04.729Z,30.32
2019-05-02T10:33:37.562Z,30.15
2019-05-02T10:36:05.435Z,31.35
2019-05-02T10:38:34.802Z,34.15
2019-05-02T10:41:04.921Z,31.72
2019-05-02T10:43:34.159Z,33.29
2019-05-02T10:46:09.903Z,34.39
2019-05-02T10:48:44.425Z,33.53
2019-05-02T10:51:31.642Z,32.81
2019-05-02T10:54:02.272Z,31.64
2019-05-02T10:56:32.434Z,30.41
2019-05-02T10:59:02.326Z,28.86
2019-05-02T11:01:37.315Z,32.71
2019-05-02T11:04:08.704Z,30.58
2019-05-02T11:06:42.702Z,31.83
2019-05-02T11:09:12.102Z,29.52
2019-05-02T11:11:42.487Z,30.22
2019-05-02T11:14:33.741Z,30.35
2019-05-02T11:17:27.837Z,29.17
2019-05-02T11:20:02.836Z,29.61
2019-05-02T11:22:32.334Z,29.04
2019-05-02T11:25:02.149Z,31.20
2019-05-02T11:27:32.899Z,31.44
2019-05-02T11:30:02.803Z,30.31
2019-05-02T11:32:32.754Z,31.67
2019-05-02T11:35:02.969Z,32.86
2019-05-02T11:37:32.934Z,33.57
2019-05-02T11:40:06.151Z,34.81
2019-05-02T11:42:33.342Z,34.00
2019-05-02T11:45:02.859Z,36.56
2019-05-02T11:47:33.716Z,37.39
2019-05-02T11:50:02.972Z,41.34
2019-05-02T11:52:37.178Z,42.54
2019-05-02T11:55:03.368Z,43.08
2019-05-02T11:57:33.178Z,41.99
2019-05-02T12:00:05.093Z,39.08
2019-05-02T12:02:58.098Z,35.08
2019-05-02T12:05:35.403Z,35.31
2019-05-02T12:08:07.754Z,35.93
2019-05-02T12:10:36.627Z,39.83
2019-05-02T12:13:06.603Z,42.57
2019-05-02T12:15:35.364Z,42.28
2019-05-02T12:18:05.225Z,40.54
2019-05-02T12:20:36.724Z,39.02
2019-05-02T12:23:09.017Z,35.21
2019-05-02T12:25:37.113Z,34.83
2019-05-02T12:28:07.027Z,35.38
2019-05-02T12:30:37.855Z,35.32
2019-05-02T12:33:08.104Z,36.11
2019-05-02T12:35:37.622Z,38.20
2019-05-02T12:38:07.024Z,39.79
2019-05-02T12:40:36.513Z,40.32
2019-05-02T12:43:05.991Z,40.59
2019-05-02T12:45:35.374Z,39.08
2019-05-02T12:48:04.815Z,41.27
2019-05-02T12:50:34.147Z,38.38
2019-05-02T12:53:03.491Z,36.21
2019-05-02T12:55:32.779Z,34.98
2019-05-02T12:58:03.136Z,40.08
2019-05-02T13:00:32.741Z,38.63
2019-05-02T13:03:18.221Z,38.53
2019-05-02T13:05:47.725Z,35.44
2019-05-02T13:08:17.060Z,32.50
2019-05-02T13:11:17.414Z,35.17
2019-05-02T13:13:46.910Z,38.80
2019-05-02T13:16:16.345Z,38.62
2019-05-02T13:18:45.701Z,37.88
2019-05-02T13:21:20.750Z,39.77
2019-05-02T13:23:54.632Z,38.83
2019-05-02T13:26:27.094Z,39.12
2019-05-02T13:28:54.977Z,38.54
2019-05-02T13:31:49.078Z,39.17
2019-05-02T13:34:31.942Z,35.78
2019-05-02T13:37:02.912Z,30.53
2019-05-02T13:39:39.342Z,33.11
2019-05-02T13:42:09.630Z,28.70
2019-05-02T13:44:45.485Z,27.27
2019-05-02T13:47:15.412Z,30.37
2019-05-02T13:49:54.107Z,30.01
2019-05-02T13:52:15.927Z,30.43
2019-05-02T13:54:45.473Z,28.85
2019-05-02T13:57:14.855Z,23.38
2019-05-02T13:59:44.212Z,25.30
2019-05-02T14:02:37.327Z,25.52
2019-05-02T14:05:08.693Z,26.32
2019-05-02T14:07:38.789Z,26.10
2019-05-02T14:10:18.788Z,25.15
2019-05-02T14:12:52.828Z,25.01
2019-05-02T14:15:24.556Z,26.44
2019-05-02T14:17:53.997Z,26.24
2019-05-02T14:20:23.499Z,27.15
2019-05-02T14:22:52.921Z,26.92
2019-05-02T14:25:22.523Z,26.10
2019-05-02T14:27:55.453Z,25.87
2019-05-02T14:30:36.219Z,26.84
2019-05-02T14:32:58.256Z,27.80
2019-05-02T14:35:30.016Z,31.79
2019-05-02T14:38:09.305Z,33.95
2019-05-02T14:40:45.345Z,33.84
2019-05-02T14:43:17.723Z,33.74
2019-05-02T14:45:51.003Z,34.14
2019-05-02T14:48:23.616Z,36.91
2019-05-02T14:50:52.621Z,35.46
2019-05-02T14:53:25.325Z,33.26
2019-05-02T14:55:57.589Z,33.01
2019-05-02T14:58:25.681Z,33.31
2019-05-02T15:00:56.657Z,31.87
2019-05-02T15:03:28.453Z,33.13
2019-05-02T15:05:59.102Z,33.27
2019-05-02T15:08:28.270Z,35.72
2019-05-02T15:10:57.727Z,38.05
2019-05-02T15:13:27.194Z,39.04
2019-05-02T15:15:56.615Z,38.78
2019-05-02T15:18:25.902Z,38.57
2019-05-02T15:20:55.247Z,39.75
2019-05-02T15:23:24.770Z,40.30
2019-05-02T15:25:56.060Z,39.24
2019-05-02T15:28:25.347Z,38.02
2019-05-02T15:31:05.721Z,38.39
2019-05-02T15:33:38.919Z,38.46
2019-05-02T15:36:08.894Z,38.63
2019-05-02T15:38:45.560Z,38.11
2019-05-02T15:41:12.617Z,39.53
2019-05-02T15:43:44.276Z,38.77
2019-05-02T15:46:17.319Z,38.60
2019-05-02T15:48:42.799Z,39.95
2019-05-02T15:51:12.418Z,39.11
2019-05-02T15:54:04.477Z,40.11
2019-05-02T15:56:24.372Z,38.96
2019-05-02T15:58:58.081Z,38.83
2019-05-02T16:01:36.669Z,39.86
2019-05-02T16:04:09.146Z,39.59
2019-05-02T16:06:38.583Z,37.91
2019-05-02T16:09:08.488Z,38.65
2019-05-02T16:11:37.995Z,39.04
2019-05-02T16:14:07.384Z,37.62
2019-05-02T16:16:41.133Z,37.46
2019-05-02T16:19:07.840Z,38.59
2019-05-02T16:21:45.612Z,39.18
2019-05-02T16:24:22.974Z,38.61
2019-05-02T16:26:56.609Z,38.90
2019-05-02T16:29:28.313Z,37.66
2019-05-02T16:32:14.293Z,36.47
2019-05-02T16:34:54.841Z,37.06
2019-05-02T16:37:24.537Z,38.06
2019-05-02T16:39:54.128Z,37.77
2019-05-02T16:42:23.645Z,37.50
2019-05-02T16:44:54.840Z,38.02
2019-05-02T16:47:24.081Z,37.52
2019-05-02T16:49:56.396Z,38.94
2019-05-02T16:52:24.562Z,40.53
2019-05-02T16:54:54.053Z,41.96
2019-05-02T16:57:23.848Z,42.22
2019-05-02T17:00:01.002Z,42.23
2019-05-02T17:02:24.700Z,42.52
2019-05-02T17:04:54.584Z,42.93
2019-05-02T17:07:52.970Z,44.06
2019-05-02T17:10:29.220Z,44.02
2019-05-02T17:13:00.304Z,43.75
2019-05-02T17:15:35.450Z,43.67
2019-05-02T17:18:12.623Z,43.74
2019-05-02T17:20:37.174Z,44.07
2019-05-02T17:23:07.755Z,45.33
2019-05-02T17:25:37.192Z,45.48
2019-05-02T17:28:10.263Z,45.98
2019-05-02T17:30:38.828Z,46.07
2019-05-02T17:33:14.388Z,46.43
2019-05-02T17:35:41.668Z,46.29
2019-05-02T17:38:12.055Z,46.28
2019-05-02T17:40:42.236Z,50.02
2019-05-02T17:43:11.948Z,52.35
2019-05-02T17:45:41.389Z,53.49
2019-05-02T17:48:16.606Z,53.58
2019-05-02T17:51:06.655Z,55.80
2019-05-02T17:53:41.343Z,57.31
2019-05-02T17:56:07.160Z,58.78
2019-05-02T17:58:36.537Z,59.93
2019-05-02T18:01:10.187Z,59.53
2019-05-02T18:03:39.534Z,60.40
2019-05-02T18:06:13.213Z,61.30
2019-05-02T18:08:41.727Z,61.67
2019-05-02T18:11:12.700Z,62.62
2019-05-02T18:13:42.402Z,62.51
2019-05-02T18:16:15.153Z,63.48
2019-05-02T18:18:46.639Z,64.21
2019-05-02T18:21:17.271Z,64.52
2019-05-02T18:23:45.183Z,65.73
2019-05-02T18:26:14.592Z,66.61
2019-05-02T18:28:48.936Z,67.26
2019-05-02T18:31:15.315Z,67.19
2019-05-02T18:33:44.745Z,67.91
2019-05-02T18:36:17.293Z,68.20
2019-05-02T18:38:45.310Z,69.05
2019-05-02T18:41:16.270Z,70.11
2019-05-02T18:43:46.362Z,70.86
2019-05-02T18:46:16.015Z,71.64
2019-05-02T18:48:48.945Z,72.14
2019-05-02T18:51:19.001Z,73.33
2019-05-02T18:53:48.502Z,73.83
2019-05-02T18:56:18.132Z,75.22
2019-05-02T18:58:47.937Z,76.86
2019-05-02T19:01:19.436Z,76.49
2019-05-02T19:03:52.487Z,76.97
2019-05-02T19:06:21.887Z,76.71
2019-05-02T19:08:53.057Z,76.92
2019-05-02T19:11:26.787Z,77.63
2019-05-02T19:13:54.095Z,77.03
2019-05-02T19:16:27.245Z,78.74
2019-05-02T19:18:57.437Z,79.96
2019-05-02T19:21:31.256Z,81.93
2019-05-02T19:23:57.817Z,81.81
2019-05-02T19:26:29.989Z,82.32
2019-05-02T19:29:08.316Z,82.35
2019-05-02T19:31:46.144Z,82.68
2019-05-02T19:34:16.894Z,83.95
2019-05-02T19:36:46.503Z,86.34
2019-05-02T19:39:17.240Z,86.23
2019-05-02T19:41:46.612Z,86.67
2019-05-02T19:44:21.365Z,85.25
2019-05-02T19:46:47.094Z,85.80
2019-05-02T19:49:16.491Z,86.14
2019-05-02T19:51:50.557Z,86.67
2019-05-02T19:54:17.977Z,86.93
2019-05-02T19:56:47.764Z,87.78
2019-05-02T19:59:24.626Z,87.86
2019-05-02T20:01:49.566Z,84.92
2019-05-02T20:04:19.518Z,85.85
2019-05-02T20:06:49.705Z,85.23
2019-05-02T20:09:19.473Z,85.21
2019-05-02T20:11:48.891Z,85.31
2019-05-02T20:14:18.542Z,85.34
2019-05-02T20:16:52.810Z,85.25
2019-05-02T20:19:26.806Z,85.51
2019-05-02T20:22:06.606Z,85.98
2019-05-02T20:25:08.559Z,86.64
2019-05-02T20:27:37.980Z,86.29
2019-05-02T20:30:12.011Z,86.94
2019-05-02T20:32:42.852Z,87.61
2019-05-02T20:35:13.092Z,87.09
2019-05-02T20:37:42.510Z,87.46
2019-05-02T20:40:27.510Z,87.87
2019-05-02T20:42:56.855Z,88.22
2019-05-02T20:45:26.627Z,88.79
2019-05-02T20:47:56.464Z,89.72
2019-05-02T20:50:26.819Z,90.32
2019-05-02T20:52:56.479Z,90.16
2019-05-02T20:55:27.230Z,91.23
2019-05-02T20:57:57.182Z,90.19
2019-05-02T21:00:29.406Z,89.58
2019-05-02T21:02:59.119Z,90.04
2019-05-02T21:05:35.307Z,90.13
2019-05-02T21:08:42.571Z,90.26
2019-05-02T21:11:12.538Z,90.54
2019-05-02T21:13:42.151Z,90.89
2019-05-02T21:16:12.534Z,90.24
2019-05-02T21:18:42.631Z,89.51
2019-05-02T21:21:12.688Z,89.43
2019-05-02T21:23:47.318Z,89.47
2019-05-02T21:26:13.933Z,89.96
2019-05-02T21:28:46.096Z,90.24
2019-05-02T21:31:14.869Z,90.18
2019-05-02T21:33:44.458Z,90.39
2019-05-02T21:36:13.865Z,90.24
2019-05-02T21:38:43.246Z,90.34
2019-05-02T21:41:12.811Z,90.40
2019-05-02T21:43:42.694Z,89.92
2019-05-02T21:46:12.702Z,89.94
2019-05-02T21:48:42.651Z,89.57
2019-05-02T21:51:38.609Z,89.40
2019-05-02T21:54:29.958Z,89.19
2019-05-02T21:57:08.477Z,88.84
2019-05-02T21:59:38.379Z,88.03
2019-05-02T22:02:11.895Z,89.21
2019-05-02T22:04:42.366Z,89.24
2019-05-02T22:07:12.194Z,89.50
2019-05-02T22:09:41.759Z,89.50
2019-05-02T22:12:12.008Z,89.72
2019-05-02T22:14:42.148Z,89.54
2019-05-02T22:17:12.720Z,90.09
2019-05-02T22:19:42.094Z,90.08
2019-05-02T22:22:12.226Z,90.59
2019-05-02T22:24:42.132Z,90.22
2019-05-02T22:27:12.369Z,89.52
2019-05-02T22:29:43.035Z,89.50
2019-05-02T22:32:12.433Z,90.05
2019-05-02T22:34:42.607Z,89.98
2019-05-02T22:37:14.158Z,90.34
2019-05-02T22:39:48.972Z,90.36
2019-05-02T22:42:18.158Z,89.99
2019-05-02T22:44:47.325Z,90.11
2019-05-02T22:47:16.534Z,90.27
2019-05-02T22:49:45.724Z,91.72
2019-05-02T22:52:14.877Z,91.47
2019-05-02T22:54:44.037Z,91.35
2019-05-02T22:57:14.260Z,91.07
2019-05-02T22:59:43.666Z,92.67
2019-05-02T23:02:13.124Z,93.21
2019-05-02T23:04:42.309Z,93.37
2019-05-02T23:07:12.670Z,95.41
2019-05-02T23:09:43.666Z,94.88
2019-05-02T23:12:13.243Z,95.64
2019-05-02T23:14:42.451Z,96.58
2019-05-02T23:17:12.725Z,97.25
2019-05-02T23:19:42.435Z,96.46
2019-05-02T23:22:12.724Z,97.65
2019-05-02T23:24:56.134Z,97.31
2019-05-02T23:27:38.168Z,96.41
2019-05-02T23:30:11.549Z,94.02
2019-05-02T23:32:42.373Z,95.41
2019-05-02T23:35:11.819Z,94.95
2019-05-02T23:37:42.263Z,93.53
2019-05-02T23:40:12.474Z,94.02
2019-05-02T23:42:41.859Z,91.92
2019-05-02T23:45:12.100Z,90.41
2019-05-02T23:47:42.193Z,90.66
2019-05-02T23:50:12.113Z,90.08
2019-05-02T23:52:41.560Z,89.10
2019-05-02T23:55:12.188Z,86.74
2019-05-02T23:57:42.142Z,83.67
